createdAt,value
2022-08-24T00:01:50.509Z,19.40
2022-08-24T00:04:17.927Z,19.50
2022-08-24T00:06:48.064Z,19.40
2022-08-24T00:09:15.288Z,19.40
2022-08-24T00:11:42.788Z,19.40
2022-08-24T00:14:11.680Z,19.30
2022-08-24T00:16:39.038Z,19.30
2022-08-24T00:19:06.695Z,19.20
2022-08-24T00:21:33.915Z,19.20
2022-08-24T00:24:03.039Z,19.20
2022-08-24T00:26:30.429Z,19.10
2022-08-24T00:28:58.855Z,19.10
2022-08-24T00:31:26.719Z,19.00
2022-08-24T00:33:54.750Z,19.00
2022-08-24T00:36:22.276Z,19.00
2022-08-24T00:38:50.047Z,19.00
2022-08-24T00:41:18.470Z,18.90
2022-08-24T00:44:00.238Z,18.80
2022-08-24T00:46:53.548Z,18.80
2022-08-24T00:49:33.948Z,18.80
2022-08-24T00:52:18.671Z,18.80
2022-08-24T00:54:54.903Z,18.80
2022-08-24T00:57:26.726Z,18.80
2022-08-24T00:59:58.678Z,18.70
2022-08-24T01:02:31.871Z,18.70
2022-08-24T01:05:02.799Z,18.70
2022-08-24T01:07:32.165Z,18.70
2022-08-24T01:10:04.199Z,18.70
2022-08-24T01:12:33.513Z,18.60
2022-08-24T01:15:03.864Z,18.60
2022-08-24T01:18:04.222Z,18.60
2022-08-24T01:20:31.913Z,18.50
2022-08-24T01:23:18.428Z,18.50
2022-08-24T01:25:45.744Z,18.40
2022-08-24T01:28:25.570Z,18.40
2022-08-24T01:30:55.719Z,18.40
2022-08-24T01:33:27.063Z,18.30
2022-08-24T01:36:33.553Z,18.30
2022-08-24T01:39:15.396Z,18.30
2022-08-24T01:41:43.034Z,18.30
2022-08-24T01:44:10.975Z,18.20
2022-08-24T01:46:38.212Z,18.20
2022-08-24T01:49:05.657Z,18.10
2022-08-24T01:51:34.002Z,18.10
2022-08-24T01:54:03.440Z,18.10
2022-08-24T01:56:33.123Z,18.10
2022-08-24T01:59:00.998Z,18.00
2022-08-24T02:01:30.689Z,18.00
2022-08-24T02:04:00.117Z,18.00
2022-08-24T02:06:27.918Z,17.90
2022-08-24T02:08:56.210Z,17.90
2022-08-24T02:11:23.722Z,17.90
2022-08-24T02:13:51.162Z,17.90
2022-08-24T02:16:20.116Z,17.90
2022-08-24T02:18:47.389Z,17.80
2022-08-24T02:21:15.200Z,17.80
2022-08-24T02:23:43.490Z,17.80
2022-08-24T02:26:11.791Z,17.80
2022-08-24T02:28:39.831Z,17.80
2022-08-24T02:31:08.610Z,17.80
2022-08-24T02:33:38.163Z,17.80
2022-08-24T02:36:10.468Z,17.80
2022-08-24T02:38:54.927Z,17.70
2022-08-24T02:41:24.954Z,17.70
2022-08-24T02:43:53.610Z,17.70
2022-08-24T02:46:24.184Z,17.60
2022-08-24T02:48:53.000Z,17.60
2022-08-24T02:51:44.073Z,17.60
2022-08-24T02:54:13.129Z,17.60
2022-08-24T02:56:40.397Z,17.50
2022-08-24T02:59:07.898Z,17.50
2022-08-24T03:01:35.234Z,17.50
2022-08-24T03:04:02.726Z,17.40
2022-08-24T03:06:30.077Z,17.40
2022-08-24T03:08:57.245Z,17.40
2022-08-24T03:11:27.912Z,17.30
2022-08-24T03:13:58.634Z,17.30
2022-08-24T03:16:28.099Z,17.30
2022-08-24T03:18:55.498Z,17.20
2022-08-24T03:21:22.929Z,17.20
2022-08-24T03:23:50.300Z,17.10
2022-08-24T03:26:17.847Z,17.10
2022-08-24T03:28:45.332Z,17.10
2022-08-24T03:31:12.969Z,17.10
2022-08-24T03:33:40.366Z,17.00
2022-08-24T03:36:11.233Z,17.00
2022-08-24T03:38:41.767Z,16.90
2022-08-24T03:41:09.326Z,16.90
2022-08-24T03:43:49.285Z,16.90
2022-08-24T03:46:22.827Z,16.90
2022-08-24T03:48:52.642Z,16.90
2022-08-24T03:51:23.968Z,16.90
2022-08-24T03:53:52.138Z,16.90
2022-08-24T03:56:19.829Z,16.80
2022-08-24T03:58:48.316Z,16.90
2022-08-24T04:01:18.002Z,16.80
2022-08-24T04:03:47.790Z,16.90
2022-08-24T04:06:16.994Z,16.80
2022-08-24T04:08:44.973Z,16.80
2022-08-24T04:11:18.436Z,16.80
2022-08-24T04:13:47.003Z,16.80
2022-08-24T04:16:16.987Z,16.80
2022-08-24T04:18:45.138Z,16.80
2022-08-24T04:21:21.485Z,16.80
2022-08-24T04:23:49.626Z,16.70
2022-08-24T04:26:44.372Z,16.70
2022-08-24T04:29:09.584Z,16.70
2022-08-24T04:31:40.822Z,16.70
2022-08-24T04:34:09.166Z,16.70
2022-08-24T04:36:36.880Z,16.70
2022-08-24T04:39:04.787Z,16.70
2022-08-24T04:41:32.106Z,16.70
2022-08-24T04:44:00.147Z,16.70
2022-08-24T04:46:28.380Z,16.70
2022-08-24T04:48:55.910Z,16.70
2022-08-24T04:51:23.297Z,16.70
2022-08-24T04:53:51.998Z,16.80
2022-08-24T04:56:23.655Z,16.80
2022-08-24T04:58:52.634Z,16.80
2022-08-24T05:01:22.810Z,16.90
2022-08-24T05:03:52.112Z,16.90
2022-08-24T05:06:21.145Z,17.00
2022-08-24T05:08:49.030Z,17.10
2022-08-24T05:11:22.691Z,17.10
2022-08-24T05:13:53.285Z,17.20
2022-08-24T05:16:21.049Z,17.30
2022-08-24T05:18:48.819Z,17.40
2022-08-24T05:21:19.984Z,17.50
2022-08-24T05:23:49.718Z,17.60
2022-08-24T05:26:25.314Z,17.70
2022-08-24T05:29:01.687Z,17.80
2022-08-24T05:31:30.526Z,17.80
2022-08-24T05:33:59.252Z,17.90
2022-08-24T05:36:35.514Z,18.00
2022-08-24T05:39:10.563Z,18.10
2022-08-24T05:41:41.777Z,18.20
2022-08-24T05:44:13.453Z,18.40
2022-08-24T05:46:41.080Z,18.70
2022-08-24T05:49:08.544Z,19.00
2022-08-24T05:51:36.952Z,19.40
2022-08-24T05:54:05.287Z,19.90
2022-08-24T05:56:32.579Z,20.30
2022-08-24T05:59:00.213Z,20.90
2022-08-24T06:01:29.152Z,21.40
2022-08-24T06:03:56.900Z,21.90
2022-08-24T06:06:25.531Z,22.40
2022-08-24T06:08:56.394Z,22.50
2022-08-24T06:11:30.778Z,22.50
2022-08-24T06:14:02.047Z,22.50
2022-08-24T06:16:29.859Z,22.50
2022-08-24T06:18:57.195Z,22.40
2022-08-24T06:21:28.169Z,22.40
2022-08-24T06:23:56.508Z,22.40
2022-08-24T06:26:42.656Z,22.40
2022-08-24T06:29:10.282Z,22.40
2022-08-24T06:31:44.122Z,22.50
2022-08-24T06:34:15.259Z,22.60
2022-08-24T06:36:42.727Z,22.70
2022-08-24T06:39:11.083Z,22.80
2022-08-24T06:41:39.406Z,22.80
2022-08-24T06:44:08.145Z,22.90
2022-08-24T06:46:36.667Z,23.00
2022-08-24T06:49:04.551Z,23.00
2022-08-24T06:51:32.728Z,23.00
2022-08-24T06:54:00.433Z,23.00
2022-08-24T06:56:27.682Z,23.00
2022-08-24T06:58:56.745Z,23.10
2022-08-24T07:01:26.998Z,23.40
2022-08-24T07:03:54.748Z,23.50
2022-08-24T07:06:23.886Z,23.50
2022-08-24T07:08:52.561Z,23.50
2022-08-24T07:11:52.882Z,23.40
2022-08-24T07:14:20.459Z,23.30
2022-08-24T07:16:48.015Z,23.10
2022-08-24T07:19:15.723Z,23.00
2022-08-24T07:21:43.292Z,22.90
2022-08-24T07:24:11.038Z,22.80
2022-08-24T07:26:39.318Z,22.70
2022-08-24T07:29:30.639Z,22.70
2022-08-24T07:31:59.372Z,22.60
2022-08-24T07:34:29.534Z,22.50
2022-08-24T07:36:57.079Z,22.50
2022-08-24T07:39:24.336Z,22.40
2022-08-24T07:42:11.396Z,22.40
2022-08-24T07:44:39.517Z,22.40
2022-08-24T07:47:27.285Z,22.40
2022-08-24T07:49:54.167Z,22.30
2022-08-24T07:52:21.464Z,22.20
2022-08-24T07:54:49.833Z,22.20
2022-08-24T07:57:17.172Z,22.20
2022-08-24T07:59:44.476Z,22.20
2022-08-24T08:02:12.028Z,22.20
2022-08-24T08:04:40.231Z,22.20
2022-08-24T08:07:07.776Z,22.20
2022-08-24T08:09:38.555Z,22.20
2022-08-24T08:12:06.781Z,22.20
2022-08-24T08:14:33.922Z,22.20
2022-08-24T08:17:01.336Z,22.20
2022-08-24T08:19:28.571Z,22.20
2022-08-24T08:22:20.165Z,22.20
2022-08-24T08:24:47.535Z,22.30
2022-08-24T08:27:17.844Z,22.40
2022-08-24T08:29:45.235Z,22.40
2022-08-24T08:32:17.108Z,22.40
2022-08-24T08:34:45.241Z,22.40
2022-08-24T08:37:13.193Z,22.40
2022-08-24T08:39:40.970Z,22.40
2022-08-24T08:42:17.606Z,22.50
2022-08-24T08:45:32.180Z,22.50
2022-08-24T08:51:49.023Z,22.60
2022-08-24T08:54:49.414Z,22.70
2022-08-24T08:57:33.005Z,22.70
2022-08-24T09:00:15.801Z,22.70
2022-08-24T09:03:12.414Z,22.80
2022-08-24T09:06:13.310Z,22.80
2022-08-24T09:09:15.010Z,22.90
2022-08-24T09:12:09.817Z,22.90
2022-08-24T09:15:02.302Z,23.00
2022-08-24T09:17:54.953Z,23.10
2022-08-24T09:20:29.210Z,23.20
2022-08-24T09:23:35.314Z,23.20
2022-08-24T09:26:46.001Z,23.30
2022-08-24T09:29:19.069Z,23.40
2022-08-24T09:31:56.650Z,23.40
2022-08-24T09:34:52.797Z,23.50
2022-08-24T09:37:32.165Z,23.60
2022-08-24T09:40:17.541Z,23.70
2022-08-24T09:42:57.220Z,23.70
2022-08-24T09:45:40.594Z,23.80
2022-08-24T09:48:32.312Z,23.90
2022-08-24T09:51:02.179Z,24.00
2022-08-24T09:54:10.546Z,24.20
2022-08-24T09:57:04.384Z,24.30
2022-08-24T10:00:02.917Z,24.50
2022-08-24T10:02:54.338Z,24.80
2022-08-24T10:05:37.017Z,25.00
2022-08-24T10:08:34.288Z,25.40
2022-08-24T10:11:16.249Z,25.90
2022-08-24T10:13:46.139Z,26.40
2022-08-24T10:16:44.501Z,26.60
2022-08-24T10:19:42.984Z,26.70
2022-08-24T10:22:22.722Z,26.80
2022-08-24T10:25:23.351Z,27.00
2022-08-24T10:28:13.496Z,27.00
2022-08-24T10:31:03.345Z,27.10
2022-08-24T10:33:39.352Z,27.20
2022-08-24T10:36:34.227Z,27.20
2022-08-24T10:39:39.927Z,27.20
2022-08-24T10:42:49.704Z,27.10
2022-08-24T10:45:44.252Z,27.20
2022-08-24T10:48:33.027Z,27.20
2022-08-24T10:51:37.388Z,27.20
2022-08-24T10:54:06.335Z,27.20
2022-08-24T10:57:10.300Z,27.10
2022-08-24T10:59:57.343Z,27.10
2022-08-24T11:02:39.977Z,27.10
2022-08-24T11:05:08.917Z,27.20
2022-08-24T11:07:37.625Z,27.40
2022-08-24T11:10:09.065Z,27.50
2022-08-24T11:12:44.060Z,27.60
2022-08-24T11:15:24.098Z,27.60
2022-08-24T11:18:02.715Z,27.60
2022-08-24T11:20:44.802Z,27.60
2022-08-24T11:23:31.714Z,27.70
2022-08-24T11:26:13.706Z,27.70
2022-08-24T11:29:04.380Z,27.70
2022-08-24T11:31:40.305Z,27.90
2022-08-24T11:34:15.010Z,27.80
2022-08-24T11:36:42.968Z,27.60
2022-08-24T11:39:17.213Z,27.50
2022-08-24T11:42:03.104Z,27.50
2022-08-24T11:44:46.873Z,27.60
2022-08-24T11:47:23.705Z,27.90
2022-08-24T11:50:07.021Z,28.20
2022-08-24T11:52:46.531Z,28.40
2022-08-24T11:55:24.222Z,28.40
2022-08-24T11:58:14.392Z,28.40
2022-08-24T12:00:53.135Z,28.30
2022-08-24T12:04:09.913Z,28.20
2022-08-24T12:06:46.185Z,28.20
2022-08-24T12:09:56.084Z,28.30
2022-08-24T12:12:28.876Z,28.40
2022-08-24T12:15:05.391Z,28.20
2022-08-24T12:17:39.518Z,28.10
2022-08-24T12:20:20.828Z,28.00
2022-08-24T12:22:49.513Z,28.00
2022-08-24T12:25:36.563Z,27.90
2022-08-24T12:28:05.571Z,27.90
2022-08-24T12:30:33.642Z,27.90
2022-08-24T12:33:10.104Z,28.10
2022-08-24T12:35:46.112Z,28.20
2022-08-24T12:38:28.305Z,28.10
2022-08-24T12:41:19.854Z,28.10
2022-08-24T12:44:02.064Z,28.20
2022-08-24T12:46:30.361Z,28.20
2022-08-24T12:49:22.296Z,28.10
2022-08-24T12:52:24.912Z,28.20
2022-08-24T12:55:10.534Z,28.30
2022-08-24T12:57:54.571Z,28.40
2022-08-24T13:00:29.686Z,28.50
2022-08-24T13:03:05.313Z,28.60
2022-08-24T13:06:00.817Z,28.70
2022-08-24T13:08:46.177Z,28.70
2022-08-24T13:11:35.279Z,28.60
2022-08-24T13:14:25.836Z,28.60
2022-08-24T13:17:09.756Z,28.70
2022-08-24T13:19:44.139Z,28.80
2022-08-24T13:22:11.477Z,28.90
2022-08-24T13:24:47.620Z,28.90
2022-08-24T13:27:15.921Z,29.00
2022-08-24T13:30:05.901Z,29.00
2022-08-24T13:32:39.956Z,29.00
2022-08-24T13:35:49.341Z,29.00
2022-08-24T13:38:34.860Z,29.00
2022-08-24T13:41:18.258Z,28.90
2022-08-24T13:44:08.042Z,28.90
2022-08-24T13:47:11.997Z,29.00
2022-08-24T13:50:02.302Z,29.10
2022-08-24T13:53:10.946Z,29.20
2022-08-24T13:55:44.541Z,29.20
2022-08-24T13:58:46.244Z,29.30
2022-08-24T14:01:34.337Z,29.30
2022-08-24T14:04:19.892Z,29.30
2022-08-24T14:07:15.747Z,29.40
2022-08-24T14:10:02.295Z,29.30
2022-08-24T14:12:32.977Z,29.20
2022-08-24T14:15:16.184Z,29.10
2022-08-24T14:17:55.698Z,29.00
2022-08-24T14:20:51.562Z,29.10
2022-08-24T14:23:50.324Z,29.20
2022-08-24T14:26:39.011Z,29.20
2022-08-24T14:29:18.399Z,29.20
2022-08-24T14:32:12.073Z,29.20
2022-08-24T14:38:14.615Z,29.00
2022-08-24T14:41:08.488Z,28.90
2022-08-24T14:44:07.185Z,28.90
2022-08-24T14:46:56.544Z,28.80
2022-08-24T14:49:39.154Z,28.80
2022-08-24T14:52:24.264Z,28.80
2022-08-24T14:55:03.841Z,28.90
2022-08-24T14:58:01.695Z,28.80
2022-08-24T15:00:51.757Z,28.80
2022-08-24T15:04:05.359Z,28.80
2022-08-24T15:06:55.197Z,28.80
2022-08-24T15:09:36.803Z,28.90
2022-08-24T15:12:26.523Z,29.00
2022-08-24T15:15:03.659Z,29.10
2022-08-24T15:17:44.180Z,29.10
2022-08-24T15:20:44.873Z,29.10
2022-08-24T15:23:26.425Z,29.10
2022-08-24T15:25:53.812Z,29.00
2022-08-24T15:28:25.978Z,29.00
2022-08-24T15:31:03.359Z,28.90
2022-08-24T15:33:31.469Z,28.90
2022-08-24T15:36:13.988Z,29.00
2022-08-24T15:38:41.977Z,29.00
2022-08-24T15:41:23.164Z,29.00
2022-08-24T15:43:59.036Z,29.00
2022-08-24T15:46:38.969Z,29.00
2022-08-24T15:49:14.174Z,28.90
2022-08-24T15:51:50.592Z,28.90
2022-08-24T15:54:46.678Z,28.80
2022-08-24T15:57:25.597Z,28.80
2022-08-24T16:00:05.083Z,28.70
2022-08-24T16:02:36.153Z,28.70
2022-08-24T16:05:24.522Z,28.60
2022-08-24T16:08:05.545Z,28.60
2022-08-24T16:10:46.072Z,28.60
2022-08-24T16:13:19.359Z,28.60
2022-08-24T16:16:06.538Z,28.60
2022-08-24T16:18:55.966Z,28.70
2022-08-24T16:21:32.671Z,28.60
2022-08-24T16:24:27.789Z,28.50
2022-08-24T16:27:07.995Z,28.50
2022-08-24T16:29:39.157Z,28.50
2022-08-24T16:32:22.087Z,28.50
2022-08-24T16:35:09.292Z,28.40
2022-08-24T16:37:37.376Z,28.30
2022-08-24T16:40:06.804Z,28.20
2022-08-24T16:42:35.266Z,28.20
2022-08-24T16:45:05.557Z,28.10
2022-08-24T16:47:35.348Z,28.10
2022-08-24T16:50:03.839Z,28.00
2022-08-24T16:52:31.088Z,28.00
2022-08-24T16:54:58.440Z,27.90
2022-08-24T16:57:29.949Z,27.90
2022-08-24T16:59:57.622Z,27.80
2022-08-24T17:02:27.853Z,27.80
2022-08-24T17:04:55.191Z,27.80
2022-08-24T17:07:28.406Z,27.70
2022-08-24T17:09:56.894Z,27.70
2022-08-24T17:12:24.870Z,27.60
2022-08-24T17:14:52.250Z,27.60
2022-08-24T17:17:21.691Z,27.60
2022-08-24T17:19:54.366Z,27.50
2022-08-24T17:22:23.230Z,27.50
2022-08-24T17:24:51.053Z,27.50
2022-08-24T17:27:19.989Z,27.40
2022-08-24T17:29:48.050Z,27.40
2022-08-24T17:32:16.655Z,27.40
2022-08-24T17:34:43.995Z,27.30
2022-08-24T17:37:11.529Z,27.30
2022-08-24T17:39:39.190Z,27.20
2022-08-24T17:42:20.952Z,27.10
2022-08-24T17:44:54.346Z,27.10
2022-08-24T17:47:22.026Z,27.00
2022-08-24T17:49:49.238Z,27.00
2022-08-24T17:52:17.949Z,27.00
2022-08-24T17:54:45.261Z,26.90
2022-08-24T17:57:15.438Z,26.90
2022-08-24T17:59:42.991Z,26.80
2022-08-24T18:02:12.659Z,26.80
2022-08-24T18:04:40.773Z,26.70
2022-08-24T18:07:30.592Z,26.70
2022-08-24T18:10:08.775Z,26.60
2022-08-24T18:12:36.272Z,26.60
2022-08-24T18:15:05.010Z,26.50
2022-08-24T18:17:40.011Z,26.50
2022-08-24T18:20:09.989Z,26.40
2022-08-24T18:22:44.621Z,26.30
2022-08-24T18:25:13.853Z,26.20
2022-08-24T18:27:42.523Z,26.10
2022-08-24T18:30:20.020Z,26.00
2022-08-24T18:32:50.137Z,26.00
2022-08-24T18:35:17.528Z,25.90
2022-08-24T18:37:45.081Z,25.80
2022-08-24T18:40:20.501Z,25.70
2022-08-24T18:42:50.993Z,25.70
2022-08-24T18:45:18.715Z,25.60
2022-08-24T18:47:53.087Z,25.50
2022-08-24T18:50:21.471Z,25.40
2022-08-24T18:52:49.315Z,25.30
2022-08-24T18:55:17.405Z,25.20
2022-08-24T18:57:44.890Z,25.10
2022-08-24T19:00:17.568Z,25.00
2022-08-24T19:02:45.346Z,24.90
2022-08-24T19:05:18.491Z,24.80
2022-08-24T19:07:49.344Z,24.70
2022-08-24T19:10:23.693Z,24.60
2022-08-24T19:12:56.770Z,24.50
2022-08-24T19:15:35.828Z,24.50
2022-08-24T19:18:11.515Z,24.40
2022-08-24T19:20:47.931Z,24.30
2022-08-24T19:23:23.000Z,24.20
2022-08-24T19:25:51.213Z,24.10
2022-08-24T19:28:19.630Z,24.10
2022-08-24T19:30:47.182Z,24.00
2022-08-24T19:33:20.398Z,24.00
2022-08-24T19:35:47.730Z,24.00
2022-08-24T19:38:15.169Z,23.90
2022-08-24T19:40:47.662Z,23.90
2022-08-24T19:43:16.591Z,23.80
2022-08-24T19:46:06.687Z,23.80
2022-08-24T19:48:36.939Z,23.80
2022-08-24T19:51:09.914Z,23.60
2022-08-24T19:53:44.784Z,23.70
2022-08-24T19:56:12.314Z,23.60
2022-08-24T19:58:47.685Z,23.60
2022-08-24T20:01:20.322Z,23.60
2022-08-24T20:03:49.375Z,23.60
2022-08-24T20:06:21.322Z,23.60
2022-08-24T20:08:48.974Z,23.60
2022-08-24T20:11:18.181Z,23.60
2022-08-24T20:13:46.337Z,23.50
2022-08-24T20:16:17.788Z,23.50
2022-08-24T20:18:46.083Z,23.50
2022-08-24T20:21:13.612Z,23.50
2022-08-24T20:23:40.932Z,23.40
2022-08-24T20:26:09.563Z,23.40
2022-08-24T20:28:50.250Z,23.40
2022-08-24T20:31:19.077Z,23.40
2022-08-24T20:33:46.502Z,23.40
2022-08-24T20:36:44.878Z,23.40
2022-08-24T20:39:14.204Z,23.40
2022-08-24T20:41:41.650Z,23.40
2022-08-24T20:44:09.506Z,23.30
2022-08-24T20:46:38.412Z,23.30
2022-08-24T20:49:07.748Z,23.30
2022-08-24T20:51:39.990Z,23.30
2022-08-24T20:54:08.066Z,23.20
2022-08-24T20:56:38.195Z,23.20
2022-08-24T20:59:11.896Z,23.10
2022-08-24T21:01:42.617Z,23.10
2022-08-24T21:04:10.194Z,23.10
2022-08-24T21:06:39.220Z,23.00
2022-08-24T21:09:06.652Z,23.00
2022-08-24T21:11:38.090Z,23.00
2022-08-24T21:14:08.368Z,23.00
2022-08-24T21:16:39.828Z,22.90
2022-08-24T21:19:12.074Z,22.90
2022-08-24T21:21:42.252Z,22.90
2022-08-24T21:24:10.327Z,22.80
2022-08-24T21:26:38.141Z,22.80
2022-08-24T21:29:07.057Z,22.80
2022-08-24T21:31:34.937Z,22.70
2022-08-24T21:34:21.869Z,22.70
2022-08-24T21:36:49.957Z,22.70
2022-08-24T21:39:20.045Z,22.70
2022-08-24T21:41:47.977Z,22.70
2022-08-24T21:44:15.232Z,22.60
2022-08-24T21:46:42.629Z,22.60
2022-08-24T21:49:12.252Z,22.50
2022-08-24T21:51:40.619Z,22.50
2022-08-24T21:54:08.167Z,22.50
2022-08-24T21:56:35.497Z,22.50
2022-08-24T21:59:03.404Z,22.50
2022-08-24T22:01:30.802Z,22.40
2022-08-24T22:03:58.692Z,22.40
2022-08-24T22:06:31.007Z,22.30
2022-08-24T22:08:59.265Z,22.30
2022-08-24T22:11:27.370Z,22.30
2022-08-24T22:13:55.338Z,22.20
2022-08-24T22:16:22.714Z,22.20
2022-08-24T22:18:50.053Z,22.20
2022-08-24T22:21:21.672Z,22.10
2022-08-24T22:23:50.126Z,22.10
2022-08-24T22:26:17.723Z,22.00
2022-08-24T22:28:45.200Z,22.00
2022-08-24T22:31:26.876Z,22.00
2022-08-24T22:33:56.122Z,22.00
2022-08-24T22:36:24.687Z,21.90
2022-08-24T22:38:52.118Z,21.90
2022-08-24T22:41:20.349Z,21.80
2022-08-24T22:44:06.255Z,21.80
2022-08-24T22:46:35.378Z,21.80
2022-08-24T22:49:06.969Z,21.70
2022-08-24T22:51:35.401Z,21.70
2022-08-24T22:54:03.308Z,21.60
2022-08-24T22:56:37.820Z,21.60
2022-08-24T22:59:07.124Z,21.60
2022-08-24T23:01:38.627Z,21.60
2022-08-24T23:04:12.334Z,21.60
2022-08-24T23:06:39.608Z,21.50
2022-08-24T23:09:08.070Z,21.50
2022-08-24T23:11:36.128Z,21.50
2022-08-24T23:14:05.379Z,21.50
2022-08-24T23:16:35.553Z,21.40
2022-08-24T23:19:21.774Z,21.40
2022-08-24T23:21:49.461Z,21.30
2022-08-24T23:24:17.018Z,21.30
2022-08-24T23:26:44.657Z,21.20
2022-08-24T23:29:14.102Z,21.20
2022-08-24T23:31:43.718Z,21.20
2022-08-24T23:34:11.282Z,21.10
2022-08-24T23:36:39.657Z,21.10
2022-08-24T23:39:08.863Z,21.00
2022-08-24T23:41:38.590Z,21.00
2022-08-24T23:44:10.826Z,21.00
2022-08-24T23:46:39.506Z,20.90
2022-08-24T23:49:07.726Z,20.90
2022-08-24T23:51:36.788Z,20.90
2022-08-24T23:54:05.061Z,20.90
2022-08-24T23:56:36.065Z,20.90
2022-08-24T23:59:07.055Z,20.80
